首页
METAR-TAF:

METAR-TAF

机场 :

Odiham, 英格兰

纬度: 51-14N, 经度: 000-57W, 海拔: 123米

当前天气观测

该预报发布于1小时和8分钟前的16:50 UTC
风速4节,风向西北
温度 17°C
湿度 63%
气压 1017 hPa
能见度10公里或以上
少量云层高于4000英尺
多云层高于7000英尺

METAR: EGVO 241650Z 31004KT 9999 FEW040 BKN070 17/10 Q1017 BLU

时间: 18:58 (17:58 UTC)

预报

该预报发布于4小时和39分钟前的13:19 UTC
预报有效从24日的 15点(UTC)到 25日的 03点(UTC)
风速8节,风向西转西北
能见度10公里或以上
散云层高于4500英尺
几率 30% :
短暂存在
从 24日的 15点(UTC)到 24日的 21点(UTC)
能見度: 5000
散云层高于4000英尺, 积雨云.
阵雨

TAF: EGVO 241319Z 2415/2503 30008KT 9999 SCT045 PROB30 TEMPO 2415/2421 5000 SHRA SCT040CB

超过4000个机场的气象观测和天气预报(METAR&TAF报告)。

可查询的气象台以黄色和红色小点在地图上表示。

将鼠标移到小点上方,可查看气象台名称。

然后点击查看天气观测和预报。

如需切换地图:点击带黑十字的绿色按钮放大地图;点击带横线的绿色按钮缩小地图;或者点击绿色箭头查看邻近地区的地图。


METAR-TAF: